sensor_id;sensor_type;location;lat;lon;timestamp;P1;durP1;ratioP1;P2;durP2;ratioP2
62151;SDS011;48139;47.474;19.034;2023-03-14T04:43:38;17.77;;;8.55;;
62151;SDS011;48139;47.474;19.034;2023-03-14T04:46:45;14.00;;;8.05;;
62151;SDS011;48139;47.474;19.034;2023-03-14T04:49:48;18.08;;;8.20;;
62151;SDS011;48139;47.474;19.034;2023-03-14T04:52:51;16.10;;;8.33;;
62151;SDS011;48139;47.474;19.034;2023-03-14T04:55:54;14.85;;;7.03;;
62151;SDS011;48139;47.474;19.034;2023-03-14T04:58:58;12.63;;;8.18;;
62151;SDS011;48139;47.474;19.034;2023-03-14T05:02:01;14.15;;;8.60;;
62151;SDS011;48139;47.474;19.034;2023-03-14T05:05:04;13.80;;;8.75;;
62151;SDS011;48139;47.474;19.034;2023-03-14T05:08:07;15.35;;;8.07;;
62151;SDS011;48139;47.474;19.034;2023-03-14T05:11:10;16.75;;;8.57;;
62151;SDS011;48139;47.474;19.034;2023-03-14T05:14:14;15.65;;;7.50;;
62151;SDS011;48139;47.474;19.034;2023-03-14T05:17:17;16.70;;;7.63;;
62151;SDS011;48139;47.474;19.034;2023-03-14T05:20:21;11.45;;;8.27;;
62151;SDS011;48139;47.474;19.034;2023-03-14T05:23:25;17.65;;;8.02;;
62151;SDS011;48139;47.474;19.034;2023-03-14T05:26:27;13.17;;;7.10;;
62151;SDS011;48139;47.474;19.034;2023-03-14T05:29:30;14.23;;;7.87;;
62151;SDS011;48139;47.474;19.034;2023-03-14T05:32:33;11.37;;;7.23;;
62151;SDS011;48139;47.474;19.034;2023-03-14T05:35:36;14.05;;;7.50;;
62151;SDS011;48139;47.474;19.034;2023-03-14T05:38:39;16.53;;;7.50;;
62151;SDS011;48139;47.474;19.034;2023-03-14T05:41:42;12.02;;;7.40;;
62151;SDS011;48139;47.474;19.034;2023-03-14T05:44:45;11.90;;;7.23;;
62151;SDS011;48139;47.474;19.034;2023-03-14T05:47:48;14.32;;;7.45;;
62151;SDS011;48139;47.474;19.034;2023-03-14T05:50:57;18.53;;;7.17;;
62151;SDS011;48139;47.474;19.034;2023-03-14T05:54:02;14.45;;;7.78;;
62151;SDS011;48139;47.474;19.034;2023-03-14T05:57:05;12.80;;;7.75;;
62151;SDS011;48139;47.474;19.034;2023-03-14T06:00:08;16.60;;;7.82;;
62151;SDS011;48139;47.474;19.034;2023-03-14T06:03:13;13.48;;;7.03;;
62151;SDS011;48139;47.474;19.034;2023-03-14T06:06:16;13.30;;;7.32;;
62151;SDS011;48139;47.474;19.034;2023-03-14T06:09:19;12.15;;;6.72;;
62151;SDS011;48139;47.474;19.034;2023-03-14T06:12:25;12.90;;;6.55;;
62151;SDS011;48139;47.474;19.034;2023-03-14T06:18:32;12.68;;;6.80;;
62151;SDS011;48139;47.474;19.034;2023-03-14T06:21:35;17.85;;;8.57;;
62151;SDS011;48139;47.474;19.034;2023-03-14T06:24:37;12.73;;;6.77;;
62151;SDS011;48139;47.474;19.034;2023-03-14T06:27:40;11.20;;;6.30;;
62151;SDS011;48139;47.474;19.034;2023-03-14T06:30:43;16.12;;;6.90;;
62151;SDS011;48139;47.474;19.034;2023-03-14T06:33:46;11.00;;;8.00;;
62151;SDS011;48139;47.474;19.034;2023-03-14T06:36:48;12.88;;;6.60;;
62151;SDS011;48139;47.474;19.034;2023-03-14T06:39:51;11.02;;;6.97;;
62151;SDS011;48139;47.474;19.034;2023-03-14T06:42:54;14.23;;;6.87;;
62151;SDS011;48139;47.474;19.034;2023-03-14T06:45:57;14.75;;;6.57;;
62151;SDS011;48139;47.474;19.034;2023-03-14T06:49:01;12.32;;;6.57;;
62151;SDS011;48139;47.474;19.034;2023-03-14T06:52:03;10.88;;;6.47;;
62151;SDS011;48139;47.474;19.034;2023-03-14T06:55:07;12.35;;;7.50;;
62151;SDS011;48139;47.474;19.034;2023-03-14T06:58:11;13.62;;;7.18;;
62151;SDS011;48139;47.474;19.034;2023-03-14T07:01:22;13.45;;;6.87;;
62151;SDS011;48139;47.474;19.034;2023-03-14T07:04:28;12.48;;;7.10;;
62151;SDS011;48139;47.474;19.034;2023-03-14T07:07:30;11.50;;;6.75;;
62151;SDS011;48139;47.474;19.034;2023-03-14T07:10:34;14.82;;;7.12;;
62151;SDS011;48139;47.474;19.034;2023-03-14T07:13:38;14.37;;;6.93;;
62151;SDS011;48139;47.474;19.034;2023-03-14T07:16:41;11.73;;;6.35;;
62151;SDS011;48139;47.474;19.034;2023-03-14T07:19:44;10.68;;;6.45;;
62151;SDS011;48139;47.474;19.034;2023-03-14T07:22:50;15.23;;;8.15;;
62151;SDS011;48139;47.474;19.034;2023-03-14T07:25:54;15.15;;;6.78;;
62151;SDS011;48139;47.474;19.034;2023-03-14T07:32:01;15.65;;;7.53;;
62151;SDS011;48139;47.474;19.034;2023-03-14T07:35:03;16.67;;;7.75;;
62151;SDS011;48139;47.474;19.034;2023-03-14T07:38:09;13.98;;;7.45;;
62151;SDS011;48139;47.474;19.034;2023-03-14T07:41:12;13.25;;;7.25;;
62151;SDS011;48139;47.474;19.034;2023-03-14T07:44:16;17.37;;;7.20;;
62151;SDS011;48139;47.474;19.034;2023-03-14T07:47:19;16.80;;;7.68;;
62151;SDS011;48139;47.474;19.034;2023-03-14T07:50:26;16.50;;;6.80;;
62151;SDS011;48139;47.474;19.034;2023-03-14T07:53:29;13.15;;;6.87;;
62151;SDS011;48139;47.474;19.034;2023-03-14T07:56:31;10.38;;;5.68;;
62151;SDS011;48139;47.474;19.034;2023-03-14T07:59:34;14.15;;;8.73;;
62151;SDS011;48139;47.474;19.034;2023-03-14T08:02:37;14.00;;;7.15;;
62151;SDS011;48139;47.474;19.034;2023-03-14T08:05:40;12.13;;;6.75;;
62151;SDS011;48139;47.474;19.034;2023-03-14T08:08:44;18.23;;;8.05;;
62151;SDS011;48139;47.474;19.034;2023-03-14T08:11:47;12.40;;;6.82;;
62151;SDS011;48139;47.474;19.034;2023-03-14T08:14:49;18.10;;;7.90;;
62151;SDS011;48139;47.474;19.034;2023-03-14T08:17:52;12.07;;;6.47;;
62151;SDS011;48139;47.474;19.034;2023-03-14T08:20:57;13.50;;;5.87;;
62151;SDS011;48139;47.474;19.034;2023-03-14T08:24:01;14.45;;;6.65;;
62151;SDS011;48139;47.474;19.034;2023-03-14T08:27:04;10.63;;;6.03;;
62151;SDS011;48139;47.474;19.034;2023-03-14T08:30:13;18.37;;;7.40;;
62151;SDS011;48139;47.474;19.034;2023-03-14T08:33:17;14.68;;;6.57;;
62151;SDS011;48139;47.474;19.034;2023-03-14T08:36:19;9.55;;;5.40;;
62151;SDS011;48139;47.474;19.034;2023-03-14T08:39:25;13.93;;;6.65;;
62151;SDS011;48139;47.474;19.034;2023-03-14T08:42:27;11.93;;;5.85;;
62151;SDS011;48139;47.474;19.034;2023-03-14T08:45:30;11.25;;;5.55;;
62151;SDS011;48139;47.474;19.034;2023-03-14T08:48:33;13.10;;;6.18;;
62151;SDS011;48139;47.474;19.034;2023-03-14T08:51:35;15.37;;;6.47;;
62151;SDS011;48139;47.474;19.034;2023-03-14T08:54:38;11.70;;;5.20;;
62151;SDS011;48139;47.474;19.034;2023-03-14T08:57:40;13.17;;;5.97;;
62151;SDS011;48139;47.474;19.034;2023-03-14T09:00:43;11.52;;;5.32;;
62151;SDS011;48139;47.474;19.034;2023-03-14T09:03:46;11.70;;;4.37;;
62151;SDS011;48139;47.474;19.034;2023-03-14T09:06:51;11.77;;;4.62;;
62151;SDS011;48139;47.474;19.034;2023-03-14T09:09:53;10.35;;;5.40;;
62151;SDS011;48139;47.474;19.034;2023-03-14T09:12:57;9.38;;;4.97;;
62151;SDS011;48139;47.474;19.034;2023-03-14T09:16:00;12.13;;;4.82;;
62151;SDS011;48139;47.474;19.034;2023-03-14T09:19:03;11.00;;;5.75;;
62151;SDS011;48139;47.474;19.034;2023-03-14T09:22:05;16.02;;;5.82;;
62151;SDS011;48139;47.474;19.034;2023-03-14T09:25:08;13.35;;;5.60;;
62151;SDS011;48139;47.474;19.034;2023-03-14T09:28:12;11.05;;;5.30;;
62151;SDS011;48139;47.474;19.034;2023-03-14T09:31:15;11.27;;;6.35;;
62151;SDS011;48139;47.474;19.034;2023-03-14T09:34:18;15.40;;;5.12;;
62151;SDS011;48139;47.474;19.034;2023-03-14T09:37:21;11.85;;;4.75;;
62151;SDS011;48139;47.474;19.034;2023-03-14T09:40:23;9.95;;;4.93;;
62151;SDS011;48139;47.474;19.034;2023-03-14T09:43:28;12.05;;;5.85;;
62151;SDS011;48139;47.474;19.034;2023-03-14T09:46:34;16.27;;;5.07;;
62151;SDS011;48139;47.474;19.034;2023-03-14T09:49:39;13.95;;;4.57;;
62151;SDS011;48139;47.474;19.034;2023-03-14T09:52:44;16.58;;;7.20;;
62151;SDS011;48139;47.474;19.034;2023-03-14T09:55:50;22.23;;;5.65;;
62151;SDS011;48139;47.474;19.034;2023-03-14T09:59:00;9.00;;;4.93;;
62151;SDS011;48139;47.474;19.034;2023-03-14T10:02:28;9.32;;;5.20;;
62151;SDS011;48139;47.474;19.034;2023-03-14T10:05:37;9.52;;;4.20;;
62151;SDS011;48139;47.474;19.034;2023-03-14T10:08:44;25.30;;;5.62;;
62151;SDS011;48139;47.474;19.034;2023-03-14T10:11:47;7.25;;;3.95;;
62151;SDS011;48139;47.474;19.034;2023-03-14T10:14:51;6.50;;;2.80;;
62151;SDS011;48139;47.474;19.034;2023-03-14T10:17:58;13.30;;;2.22;;
62151;SDS011;48139;47.474;19.034;2023-03-14T10:27:31;4.43;;;1.80;;
62151;SDS011;48139;47.474;19.034;2023-03-14T10:30:40;11.27;;;2.00;;
62151;SDS011;48139;47.474;19.034;2023-03-14T10:34:02;11.52;;;2.87;;
62151;SDS011;48139;47.474;19.034;2023-03-14T10:37:14;12.00;;;2.30;;
62151;SDS011;48139;47.474;19.034;2023-03-14T10:40:30;8.27;;;1.75;;
62151;SDS011;48139;47.474;19.034;2023-03-14T10:43:34;8.35;;;2.47;;
62151;SDS011;48139;47.474;19.034;2023-03-14T10:46:38;6.70;;;1.65;;
62151;SDS011;48139;47.474;19.034;2023-03-14T10:49:56;8.68;;;2.00;;
62151;SDS011;48139;47.474;19.034;2023-03-14T10:53:03;4.28;;;1.92;;
62151;SDS011;48139;47.474;19.034;2023-03-14T10:56:12;7.12;;;2.30;;
62151;SDS011;48139;47.474;19.034;2023-03-14T10:59:23;5.53;;;1.98;;
62151;SDS011;48139;47.474;19.034;2023-03-14T11:02:34;7.70;;;2.65;;
62151;SDS011;48139;47.474;19.034;2023-03-14T11:05:52;3.10;;;1.35;;
62151;SDS011;48139;47.474;19.034;2023-03-14T11:23:06;5.18;;;1.40;;
62151;SDS011;48139;47.474;19.034;2023-03-14T11:26:23;7.15;;;1.62;;
62151;SDS011;48139;47.474;19.034;2023-03-14T11:29:39;9.55;;;1.95;;
62151;SDS011;48139;47.474;19.034;2023-03-14T11:36:08;4.22;;;1.80;;
62151;SDS011;48139;47.474;19.034;2023-03-14T11:39:15;3.87;;;1.27;;
62151;SDS011;48139;47.474;19.034;2023-03-14T11:42:19;6.37;;;1.40;;
62151;SDS011;48139;47.474;19.034;2023-03-14T11:45:43;8.82;;;1.67;;
62151;SDS011;48139;47.474;19.034;2023-03-14T11:49:01;5.50;;;1.47;;
62151;SDS011;48139;47.474;19.034;2023-03-14T11:52:08;5.47;;;1.30;;
62151;SDS011;48139;47.474;19.034;2023-03-14T11:55:17;5.57;;;1.12;;
62151;SDS011;48139;47.474;19.034;2023-03-14T11:58:31;2.25;;;0.95;;
62151;SDS011;48139;47.474;19.034;2023-03-14T12:01:40;18.25;;;2.87;;
62151;SDS011;48139;47.474;19.034;2023-03-14T12:08:46;4.18;;;1.15;;
62151;SDS011;48139;47.474;19.034;2023-03-14T12:11:54;3.03;;;1.45;;
62151;SDS011;48139;47.474;19.034;2023-03-14T12:15:01;3.67;;;1.15;;
62151;SDS011;48139;47.474;19.034;2023-03-14T12:18:19;3.67;;;1.65;;
62151;SDS011;48139;47.474;19.034;2023-03-14T12:21:24;2.72;;;1.30;;
62151;SDS011;48139;47.474;19.034;2023-03-14T12:24:50;4.35;;;1.55;;
62151;SDS011;48139;47.474;19.034;2023-03-14T12:31:34;2.45;;;1.17;;
62151;SDS011;48139;47.474;19.034;2023-03-14T12:34:39;5.95;;;1.67;;
62151;SDS011;48139;47.474;19.034;2023-03-14T12:37:45;8.30;;;1.60;;
62151;SDS011;48139;47.474;19.034;2023-03-14T12:40:56;4.90;;;1.80;;
62151;SDS011;48139;47.474;19.034;2023-03-14T12:44:49;5.85;;;1.70;;
62151;SDS011;48139;47.474;19.034;2023-03-14T12:50:39;3.75;;;2.03;;
62151;SDS011;48139;47.474;19.034;2023-03-14T13:03:46;4.57;;;1.58;;
62151;SDS011;48139;47.474;19.034;2023-03-14T13:06:59;3.53;;;1.50;;
62151;SDS011;48139;47.474;19.034;2023-03-14T13:10:05;3.72;;;1.35;;
62151;SDS011;48139;47.474;19.034;2023-03-14T13:13:24;1.85;;;1.00;;
62151;SDS011;48139;47.474;19.034;2023-03-14T13:16:31;7.72;;;2.53;;
62151;SDS011;48139;47.474;19.034;2023-03-14T13:19:38;3.53;;;1.67;;
62151;SDS011;48139;47.474;19.034;2023-03-14T13:22:45;3.90;;;1.75;;
62151;SDS011;48139;47.474;19.034;2023-03-14T13:25:49;2.65;;;1.42;;
62151;SDS011;48139;47.474;19.034;2023-03-14T13:28:53;6.75;;;1.80;;
62151;SDS011;48139;47.474;19.034;2023-03-14T13:31:56;4.20;;;1.60;;
62151;SDS011;48139;47.474;19.034;2023-03-14T13:35:01;5.85;;;1.90;;
62151;SDS011;48139;47.474;19.034;2023-03-14T13:38:03;6.30;;;1.77;;
62151;SDS011;48139;47.474;19.034;2023-03-14T13:41:13;6.10;;;1.98;;
62151;SDS011;48139;47.474;19.034;2023-03-14T13:44:17;5.85;;;1.80;;
62151;SDS011;48139;47.474;19.034;2023-03-14T13:47:40;6.45;;;2.05;;
62151;SDS011;48139;47.474;19.034;2023-03-14T13:50:48;4.50;;;1.73;;
62151;SDS011;48139;47.474;19.034;2023-03-14T13:53:55;3.30;;;2.20;;
62151;SDS011;48139;47.474;19.034;2023-03-14T13:57:01;4.05;;;2.10;;
62151;SDS011;48139;47.474;19.034;2023-03-14T14:00:06;5.72;;;1.77;;
62151;SDS011;48139;47.474;19.034;2023-03-14T14:03:14;4.50;;;2.15;;
62151;SDS011;48139;47.474;19.034;2023-03-14T14:06:26;4.62;;;1.62;;
62151;SDS011;48139;47.474;19.034;2023-03-14T14:09:36;5.03;;;1.65;;
62151;SDS011;48139;47.474;19.034;2023-03-14T14:12:52;5.75;;;1.90;;
62151;SDS011;48139;47.474;19.034;2023-03-14T14:19:09;9.32;;;2.10;;
62151;SDS011;48139;47.474;19.034;2023-03-14T14:22:12;11.68;;;2.92;;
62151;SDS011;48139;47.474;19.034;2023-03-14T14:25:15;14.98;;;3.92;;
62151;SDS011;48139;47.474;19.034;2023-03-14T14:31:27;13.15;;;3.72;;
62151;SDS011;48139;47.474;19.034;2023-03-14T14:34:37;6.15;;;2.37;;
62151;SDS011;48139;47.474;19.034;2023-03-14T14:37:41;23.08;;;3.30;;
62151;SDS011;48139;47.474;19.034;2023-03-14T14:40:48;11.80;;;2.30;;
62151;SDS011;48139;47.474;19.034;2023-03-14T14:43:52;15.13;;;2.37;;
62151;SDS011;48139;47.474;19.034;2023-03-14T14:46:55;11.55;;;3.08;;
62151;SDS011;48139;47.474;19.034;2023-03-14T14:50:03;15.10;;;4.25;;
62151;SDS011;48139;47.474;19.034;2023-03-14T14:56:37;5.60;;;2.53;;
62151;SDS011;48139;47.474;19.034;2023-03-14T14:59:43;7.70;;;2.87;;
62151;SDS011;48139;47.474;19.034;2023-03-14T15:02:47;9.57;;;3.80;;
62151;SDS011;48139;47.474;19.034;2023-03-14T15:05:56;10.30;;;4.05;;
62151;SDS011;48139;47.474;19.034;2023-03-14T15:08:58;11.68;;;4.32;;
62151;SDS011;48139;47.474;19.034;2023-03-14T15:12:01;9.43;;;3.35;;
62151;SDS011;48139;47.474;19.034;2023-03-14T15:15:04;9.75;;;3.40;;
62151;SDS011;48139;47.474;19.034;2023-03-14T15:18:10;10.43;;;3.72;;
62151;SDS011;48139;47.474;19.034;2023-03-14T15:21:20;8.60;;;3.28;;
62151;SDS011;48139;47.474;19.034;2023-03-14T15:24:23;8.10;;;4.28;;
62151;SDS011;48139;47.474;19.034;2023-03-14T15:27:25;12.43;;;3.83;;
62151;SDS011;48139;47.474;19.034;2023-03-14T15:30:30;9.23;;;3.85;;
62151;SDS011;48139;47.474;19.034;2023-03-14T15:33:33;10.90;;;4.90;;
62151;SDS011;48139;47.474;19.034;2023-03-14T15:36:36;12.85;;;3.37;;
62151;SDS011;48139;47.474;19.034;2023-03-14T15:39:39;14.68;;;3.67;;
62151;SDS011;48139;47.474;19.034;2023-03-14T15:42:44;8.43;;;3.12;;
62151;SDS011;48139;47.474;19.034;2023-03-14T15:45:47;7.65;;;3.62;;
62151;SDS011;48139;47.474;19.034;2023-03-14T15:48:50;9.20;;;3.90;;
62151;SDS011;48139;47.474;19.034;2023-03-14T15:51:53;8.32;;;2.10;;
62151;SDS011;48139;47.474;19.034;2023-03-14T15:54:59;7.85;;;3.00;;
62151;SDS011;48139;47.474;19.034;2023-03-14T15:58:02;5.62;;;1.73;;
62151;SDS011;48139;47.474;19.034;2023-03-14T16:01:05;3.47;;;1.87;;
62151;SDS011;48139;47.474;19.034;2023-03-14T16:04:10;7.37;;;2.00;;
62151;SDS011;48139;47.474;19.034;2023-03-14T16:07:13;4.27;;;1.87;;
62151;SDS011;48139;47.474;19.034;2023-03-14T16:10:18;3.85;;;1.65;;
62151;SDS011;48139;47.474;19.034;2023-03-14T16:13:21;5.23;;;1.70;;
62151;SDS011;48139;47.474;19.034;2023-03-14T16:16:23;4.45;;;1.80;;
62151;SDS011;48139;47.474;19.034;2023-03-14T16:19:26;7.57;;;3.65;;
62151;SDS011;48139;47.474;19.034;2023-03-14T16:22:29;3.33;;;1.30;;
62151;SDS011;48139;47.474;19.034;2023-03-14T16:25:36;4.62;;;2.08;;
62151;SDS011;48139;47.474;19.034;2023-03-14T16:28:39;6.50;;;1.92;;
62151;SDS011;48139;47.474;19.034;2023-03-14T16:31:42;3.17;;;1.40;;
62151;SDS011;48139;47.474;19.034;2023-03-14T16:34:45;5.57;;;1.50;;
62151;SDS011;48139;47.474;19.034;2023-03-14T16:37:47;5.32;;;1.62;;
62151;SDS011;48139;47.474;19.034;2023-03-14T16:41:10;6.78;;;3.05;;
62151;SDS011;48139;47.474;19.034;2023-03-14T16:44:15;4.37;;;1.67;;
